Share

Paxville, SC

Santee Cooper Regional (KMNI) Elev 105 ft | 33.59 °N, 80.21 °W | Change Station

Current weather conditions updated 33 minutes ago

Clear
Clear
68 °F
Feels Like 68 °F
N
7
Wind Variable Wind from NE
Sunrise 6:48 AM
Sunset 7:53 PM
Moon Waning Gibbous

Tomorrow is forecast to be Cooler than today. Showers possible in the afternoon.

Pressure 30.38 in
Visibility 10.0 miles
Clouds Clear
Dew Point 23 °F
Humidity 18%
Rainfall 0.00 in
Snow Depth Not available.
UV 5 out of 16
Pollen 8.90 out of 12
Air Quality Not available.
Flu Activity Local Activity
METAR KMNI 172035Z AUTO 04006KT 10SM CLR 20/M05 A3038 RMK AO2

More Conditions Fewer Conditions

Pressure 30.38 in
Visibility 10.0 miles
Clouds Clear
Dew Point 23 °F
Humidity 18%
Rainfall 0.00 in
Snow Depth Not available.
UV 5 out of 16
Pollen 8.90 out of 12
Air Quality Not available.
Flu Activity Local Activity
METAR KMNI 172035Z AUTO 04006KT 10SM CLR 20/M05 A3038 RMK AO2

More Conditions Fewer Conditions

10-Day Forecast

Almanac

Astronomy

Apr. 17, 2014 Rise Set
Actual Time 6:48 AM EDT 7:53 PM EDT
Civil Twilight 6:22 AM EDT 8:19 PM EDT
Nautical Twilight 5:51 AM EDT 8:49 PM EDT
Astronomical Twilight 5:20 AM EDT 9:21 PM EDT
Moon 10:31 PM EDT 8:23 AM EDT
Length of Visible Light 13h 56m
Length of Day
13h 05m
Tomorrow will be 1m 57s longer.
Waning Gibbous, 92% of the Moon is Illuminated
Today
Waning Gibbous
Apr 22
Last Quarter
Apr 29
New
May 6
First Quarter
May 14
Full

Today's Extremes

State Highs State Lows

Community

  • Morning Light
    Morning Light
  • New Day
    New Day
  • Lake Michigan Sunrise
    Lake Michigan Sunrise
  • sunset from izmir, narlıdere
    sunset from izmir, narlıdere
  • oregon cherry
    oregon cherry

WunderPhotos

Upload Photos

1,702,123 photos uploaded!

Nearby

Snow Depth

Station Depth Elevation
No new snow has been reported.

Coastal Water Temperatures

Place Temperature
No Stations Reporting

Earthquake Activity

City Distance Mag. Time & Date
No recent earthquake activity has been reported nearby.
Minimum magnitude displayed is 2.5.

Nearby Weather Stations

Station Location Temp. Dew Point Humidity Wind Precip. Elev Updated Type
Dingle Pond, Summerton, SC 69.4 °F 46 °F 43% North  at  3.8 mph 0.00 in / hr 79 ft 5:08 PM EDT Rapid Fire
Santee State Park-K9YS, Santee, SC 66.5 °F 50 °F 55% NE  at  4.0 mph 0.00 in / hr 135 ft 5:07 PM EDT Rapid Fire
Southwest Sumter, Sumter, SC 67.5 °F 41 °F 38% North  at  6.9 mph 0.00 in / hr 174 ft 5:08 PM EDT Rapid Fire
USC Sumter, Sumter, SC 66.4 °F 39 °F 36% South  at  4.0 mph 0.00 in / hr 177 ft 5:00 PM EDT Normal
Sunway Knolls, Sumter, SC 67.1 °F 41 °F 38% North  at  0.0 mph 0.00 in / hr 157 ft 5:08 PM EDT Rapid Fire

Show More Stations Show Fewer Stations

What do you think?

We're not finished. Please let us know what you like, what you don't like, and what you are still missing.